sensor_id;sensor_type;location;lat;lon;timestamp;P1;durP1;ratioP1;P2;durP2;ratioP2
3683;SDS011;1858;48.716;9.648;2023-11-21T00:00:38;4.80;;;2.13;;
3683;SDS011;1858;48.716;9.648;2023-11-21T00:03:25;3.10;;;1.77;;
3683;SDS011;1858;48.716;9.648;2023-11-21T00:06:13;6.47;;;2.03;;
3683;SDS011;1858;48.716;9.648;2023-11-21T00:12:05;4.63;;;2.93;;
3683;SDS011;1858;48.716;9.648;2023-11-21T00:14:52;8.27;;;3.27;;
3683;SDS011;1858;48.716;9.648;2023-11-21T00:17:39;3.37;;;2.23;;
3683;SDS011;1858;48.716;9.648;2023-11-21T00:20:26;6.63;;;3.10;;
3683;SDS011;1858;48.716;9.648;2023-11-21T00:23:13;4.97;;;2.57;;
3683;SDS011;1858;48.716;9.648;2023-11-21T00:25:59;6.90;;;2.67;;
3683;SDS011;1858;48.716;9.648;2023-11-21T00:28:45;5.37;;;3.30;;
3683;SDS011;1858;48.716;9.648;2023-11-21T00:31:32;5.83;;;2.90;;
3683;SDS011;1858;48.716;9.648;2023-11-21T00:34:18;7.83;;;3.73;;
3683;SDS011;1858;48.716;9.648;2023-11-21T00:37:05;4.63;;;2.93;;
3683;SDS011;1858;48.716;9.648;2023-11-21T00:39:52;3.20;;;2.87;;
3683;SDS011;1858;48.716;9.648;2023-11-21T00:42:39;7.00;;;2.10;;
3683;SDS011;1858;48.716;9.648;2023-11-21T00:45:25;2.60;;;2.10;;
3683;SDS011;1858;48.716;9.648;2023-11-21T00:48:11;2.90;;;2.10;;
3683;SDS011;1858;48.716;9.648;2023-11-21T00:50:58;2.60;;;1.90;;
3683;SDS011;1858;48.716;9.648;2023-11-21T00:53:44;2.57;;;1.80;;
3683;SDS011;1858;48.716;9.648;2023-11-21T00:56:31;2.70;;;1.60;;
3683;SDS011;1858;48.716;9.648;2023-11-21T00:59:18;2.73;;;1.63;;
3683;SDS011;1858;48.716;9.648;2023-11-21T01:02:04;2.27;;;1.47;;
3683;SDS011;1858;48.716;9.648;2023-11-21T01:04:52;3.53;;;1.37;;
3683;SDS011;1858;48.716;9.648;2023-11-21T01:07:38;2.67;;;1.90;;
3683;SDS011;1858;48.716;9.648;2023-11-21T01:10:24;6.43;;;1.53;;
3683;SDS011;1858;48.716;9.648;2023-11-21T01:13:10;3.47;;;2.30;;
3683;SDS011;1858;48.716;9.648;2023-11-21T01:15:58;5.90;;;1.90;;
3683;SDS011;1858;48.716;9.648;2023-11-21T01:18:45;5.40;;;1.80;;
3683;SDS011;1858;48.716;9.648;2023-11-21T01:21:31;5.07;;;1.63;;
3683;SDS011;1858;48.716;9.648;2023-11-21T01:24:18;7.07;;;1.90;;
3683;SDS011;1858;48.716;9.648;2023-11-21T01:27:04;3.13;;;1.70;;
3683;SDS011;1858;48.716;9.648;2023-11-21T01:29:51;4.30;;;2.73;;
3683;SDS011;1858;48.716;9.648;2023-11-21T01:32:38;3.03;;;1.90;;
3683;SDS011;1858;48.716;9.648;2023-11-21T01:35:25;4.20;;;1.60;;
3683;SDS011;1858;48.716;9.648;2023-11-21T01:38:12;3.27;;;1.67;;
3683;SDS011;1858;48.716;9.648;2023-11-21T01:40:59;3.40;;;1.90;;
3683;SDS011;1858;48.716;9.648;2023-11-21T01:43:46;7.30;;;1.57;;
3683;SDS011;1858;48.716;9.648;2023-11-21T01:46:32;1.80;;;1.37;;
3683;SDS011;1858;48.716;9.648;2023-11-21T01:49:19;2.33;;;1.50;;
3683;SDS011;1858;48.716;9.648;2023-11-21T01:52:06;5.97;;;2.63;;
3683;SDS011;1858;48.716;9.648;2023-11-21T01:54:53;2.80;;;1.50;;
3683;SDS011;1858;48.716;9.648;2023-11-21T01:57:39;2.60;;;1.30;;
3683;SDS011;1858;48.716;9.648;2023-11-21T02:00:26;1.90;;;1.30;;
3683;SDS011;1858;48.716;9.648;2023-11-21T02:03:12;2.33;;;1.90;;
3683;SDS011;1858;48.716;9.648;2023-11-21T02:05:58;7.03;;;2.00;;
3683;SDS011;1858;48.716;9.648;2023-11-21T02:08:45;2.77;;;1.33;;
3683;SDS011;1858;48.716;9.648;2023-11-21T02:11:31;1.80;;;1.20;;
3683;SDS011;1858;48.716;9.648;2023-11-21T02:14:24;6.00;;;1.67;;
3683;SDS011;1858;48.716;9.648;2023-11-21T02:17:07;4.10;;;1.47;;
3683;SDS011;1858;48.716;9.648;2023-11-21T02:19:54;2.70;;;1.80;;
3683;SDS011;1858;48.716;9.648;2023-11-21T02:25:41;2.80;;;2.07;;
3683;SDS011;1858;48.716;9.648;2023-11-21T02:28:27;4.53;;;1.63;;
3683;SDS011;1858;48.716;9.648;2023-11-21T02:31:14;2.90;;;2.03;;
3683;SDS011;1858;48.716;9.648;2023-11-21T02:34:00;4.97;;;2.63;;
3683;SDS011;1858;48.716;9.648;2023-11-21T02:36:47;2.57;;;1.73;;
3683;SDS011;1858;48.716;9.648;2023-11-21T02:39:37;1.60;;;1.03;;
3683;SDS011;1858;48.716;9.648;2023-11-21T02:42:23;7.30;;;1.67;;
3683;SDS011;1858;48.716;9.648;2023-11-21T02:45:09;7.77;;;1.90;;
3683;SDS011;1858;48.716;9.648;2023-11-21T02:48:01;4.43;;;1.10;;
3683;SDS011;1858;48.716;9.648;2023-11-21T02:50:47;2.87;;;1.47;;
3683;SDS011;1858;48.716;9.648;2023-11-21T02:53:33;2.77;;;1.33;;
3683;SDS011;1858;48.716;9.648;2023-11-21T02:56:19;5.10;;;1.57;;
3683;SDS011;1858;48.716;9.648;2023-11-21T02:59:06;3.20;;;1.30;;
3683;SDS011;1858;48.716;9.648;2023-11-21T03:01:52;1.70;;;1.40;;
3683;SDS011;1858;48.716;9.648;2023-11-21T03:04:39;2.00;;;1.00;;
3683;SDS011;1858;48.716;9.648;2023-11-21T03:07:25;1.67;;;1.37;;
3683;SDS011;1858;48.716;9.648;2023-11-21T03:10:11;6.00;;;1.43;;
3683;SDS011;1858;48.716;9.648;2023-11-21T03:12:57;3.63;;;1.30;;
3683;SDS011;1858;48.716;9.648;2023-11-21T03:15:43;1.50;;;1.13;;
3683;SDS011;1858;48.716;9.648;2023-11-21T03:18:29;5.03;;;1.40;;
3683;SDS011;1858;48.716;9.648;2023-11-21T03:21:16;1.80;;;1.07;;
3683;SDS011;1858;48.716;9.648;2023-11-21T03:24:04;2.57;;;1.40;;
3683;SDS011;1858;48.716;9.648;2023-11-21T03:26:52;1.90;;;1.43;;
3683;SDS011;1858;48.716;9.648;2023-11-21T03:29:38;4.60;;;1.40;;
3683;SDS011;1858;48.716;9.648;2023-11-21T03:32:24;1.50;;;1.20;;
3683;SDS011;1858;48.716;9.648;2023-11-21T03:38:17;1.60;;;1.40;;
3683;SDS011;1858;48.716;9.648;2023-11-21T03:41:03;2.67;;;1.43;;
3683;SDS011;1858;48.716;9.648;2023-11-21T03:43:50;1.70;;;1.27;;
3683;SDS011;1858;48.716;9.648;2023-11-21T03:46:36;1.50;;;1.20;;
3683;SDS011;1858;48.716;9.648;2023-11-21T03:49:22;2.57;;;1.50;;
3683;SDS011;1858;48.716;9.648;2023-11-21T03:52:09;3.67;;;1.30;;
3683;SDS011;1858;48.716;9.648;2023-11-21T03:54:55;2.53;;;2.03;;
3683;SDS011;1858;48.716;9.648;2023-11-21T03:57:41;2.07;;;1.37;;
3683;SDS011;1858;48.716;9.648;2023-11-21T04:00:28;4.80;;;2.03;;
3683;SDS011;1858;48.716;9.648;2023-11-21T04:03:14;2.83;;;1.80;;
3683;SDS011;1858;48.716;9.648;2023-11-21T04:06:01;4.00;;;1.37;;
3683;SDS011;1858;48.716;9.648;2023-11-21T04:08:47;2.90;;;1.60;;
3683;SDS011;1858;48.716;9.648;2023-11-21T04:11:33;2.63;;;1.50;;
3683;SDS011;1858;48.716;9.648;2023-11-21T04:14:20;3.27;;;1.93;;
3683;SDS011;1858;48.716;9.648;2023-11-21T04:17:06;5.20;;;2.07;;
3683;SDS011;1858;48.716;9.648;2023-11-21T04:19:52;4.27;;;1.47;;
3683;SDS011;1858;48.716;9.648;2023-11-21T04:22:42;5.70;;;1.97;;
3683;SDS011;1858;48.716;9.648;2023-11-21T04:25:29;4.50;;;2.13;;
3683;SDS011;1858;48.716;9.648;2023-11-21T04:28:16;3.60;;;1.80;;
3683;SDS011;1858;48.716;9.648;2023-11-21T04:31:03;1.70;;;1.47;;
3683;SDS011;1858;48.716;9.648;2023-11-21T04:33:51;2.03;;;1.50;;
3683;SDS011;1858;48.716;9.648;2023-11-21T04:36:38;3.30;;;1.70;;
3683;SDS011;1858;48.716;9.648;2023-11-21T04:39:25;2.80;;;2.47;;
3683;SDS011;1858;48.716;9.648;2023-11-21T04:42:11;3.50;;;2.17;;
3683;SDS011;1858;48.716;9.648;2023-11-21T04:44:57;7.33;;;2.67;;
3683;SDS011;1858;48.716;9.648;2023-11-21T04:50:49;2.07;;;1.80;;
3683;SDS011;1858;48.716;9.648;2023-11-21T04:53:36;3.30;;;1.67;;
3683;SDS011;1858;48.716;9.648;2023-11-21T04:56:24;2.73;;;1.67;;
3683;SDS011;1858;48.716;9.648;2023-11-21T04:59:10;2.53;;;1.30;;
3683;SDS011;1858;48.716;9.648;2023-11-21T05:01:56;2.57;;;1.60;;
3683;SDS011;1858;48.716;9.648;2023-11-21T05:04:45;2.63;;;1.97;;
3683;SDS011;1858;48.716;9.648;2023-11-21T05:07:32;3.13;;;1.63;;
3683;SDS011;1858;48.716;9.648;2023-11-21T05:10:20;2.03;;;1.57;;
3683;SDS011;1858;48.716;9.648;2023-11-21T05:13:07;1.70;;;1.37;;
3683;SDS011;1858;48.716;9.648;2023-11-21T05:15:55;1.70;;;1.47;;
3683;SDS011;1858;48.716;9.648;2023-11-21T05:18:44;3.07;;;1.90;;
3683;SDS011;1858;48.716;9.648;2023-11-21T05:21:30;4.10;;;1.90;;
3683;SDS011;1858;48.716;9.648;2023-11-21T05:24:20;2.97;;;1.90;;
3683;SDS011;1858;48.716;9.648;2023-11-21T05:27:07;3.70;;;1.80;;
3683;SDS011;1858;48.716;9.648;2023-11-21T05:29:54;4.00;;;2.20;;
3683;SDS011;1858;48.716;9.648;2023-11-21T05:32:40;2.43;;;1.50;;
3683;SDS011;1858;48.716;9.648;2023-11-21T05:38:25;3.87;;;2.23;;
3683;SDS011;1858;48.716;9.648;2023-11-21T05:41:12;2.50;;;1.73;;
3683;SDS011;1858;48.716;9.648;2023-11-21T05:43:58;3.00;;;2.43;;
3683;SDS011;1858;48.716;9.648;2023-11-21T05:46:45;10.47;;;2.70;;
3683;SDS011;1858;48.716;9.648;2023-11-21T05:49:32;5.50;;;2.20;;
3683;SDS011;1858;48.716;9.648;2023-11-21T05:52:18;2.07;;;1.70;;
3683;SDS011;1858;48.716;9.648;2023-11-21T05:55:05;5.00;;;1.97;;
3683;SDS011;1858;48.716;9.648;2023-11-21T05:57:53;3.00;;;1.53;;
3683;SDS011;1858;48.716;9.648;2023-11-21T06:00:39;2.07;;;1.70;;
3683;SDS011;1858;48.716;9.648;2023-11-21T06:03:26;3.97;;;1.83;;
3683;SDS011;1858;48.716;9.648;2023-11-21T06:06:12;2.07;;;1.03;;
3683;SDS011;1858;48.716;9.648;2023-11-21T06:08:58;3.10;;;2.00;;
3683;SDS011;1858;48.716;9.648;2023-11-21T06:11:45;2.70;;;1.97;;
3683;SDS011;1858;48.716;9.648;2023-11-21T06:14:31;3.00;;;2.37;;
3683;SDS011;1858;48.716;9.648;2023-11-21T06:17:19;2.53;;;1.53;;
3683;SDS011;1858;48.716;9.648;2023-11-21T06:20:08;3.03;;;2.30;;
3683;SDS011;1858;48.716;9.648;2023-11-21T06:22:57;3.07;;;2.07;;
3683;SDS011;1858;48.716;9.648;2023-11-21T06:25:45;8.27;;;2.60;;
3683;SDS011;1858;48.716;9.648;2023-11-21T06:28:31;3.50;;;1.40;;
3683;SDS011;1858;48.716;9.648;2023-11-21T06:31:18;4.57;;;1.60;;
3683;SDS011;1858;48.716;9.648;2023-11-21T06:34:06;3.53;;;2.33;;
3683;SDS011;1858;48.716;9.648;2023-11-21T06:36:54;1.97;;;1.60;;
3683;SDS011;1858;48.716;9.648;2023-11-21T06:39:41;6.67;;;1.80;;
3683;SDS011;1858;48.716;9.648;2023-11-21T06:42:27;1.73;;;1.60;;
3683;SDS011;1858;48.716;9.648;2023-11-21T06:45:14;3.80;;;1.90;;
3683;SDS011;1858;48.716;9.648;2023-11-21T06:48:01;2.60;;;2.30;;
3683;SDS011;1858;48.716;9.648;2023-11-21T06:50:47;7.17;;;2.50;;
3683;SDS011;1858;48.716;9.648;2023-11-21T06:53:35;2.50;;;1.97;;
3683;SDS011;1858;48.716;9.648;2023-11-21T06:56:22;2.80;;;1.70;;
3683;SDS011;1858;48.716;9.648;2023-11-21T06:59:08;1.70;;;1.00;;
3683;SDS011;1858;48.716;9.648;2023-11-21T07:01:56;2.20;;;1.47;;
3683;SDS011;1858;48.716;9.648;2023-11-21T07:04:44;2.37;;;1.97;;
3683;SDS011;1858;48.716;9.648;2023-11-21T07:10:38;2.03;;;1.13;;
3683;SDS011;1858;48.716;9.648;2023-11-21T07:13:24;2.80;;;0.80;;
3683;SDS011;1858;48.716;9.648;2023-11-21T07:16:11;3.07;;;1.10;;
3683;SDS011;1858;48.716;9.648;2023-11-21T07:18:57;1.93;;;1.20;;
3683;SDS011;1858;48.716;9.648;2023-11-21T07:21:44;2.80;;;1.33;;
3683;SDS011;1858;48.716;9.648;2023-11-21T07:24:30;3.20;;;1.27;;
3683;SDS011;1858;48.716;9.648;2023-11-21T07:27:17;3.57;;;2.13;;
3683;SDS011;1858;48.716;9.648;2023-11-21T07:30:03;5.93;;;3.47;;
3683;SDS011;1858;48.716;9.648;2023-11-21T07:32:53;7.23;;;1.97;;
3683;SDS011;1858;48.716;9.648;2023-11-21T07:35:40;4.20;;;1.70;;
3683;SDS011;1858;48.716;9.648;2023-11-21T07:38:26;6.60;;;3.97;;
3683;SDS011;1858;48.716;9.648;2023-11-21T07:41:13;4.63;;;2.43;;
3683;SDS011;1858;48.716;9.648;2023-11-21T07:44:02;4.33;;;2.10;;
3683;SDS011;1858;48.716;9.648;2023-11-21T07:46:48;3.10;;;2.10;;
3683;SDS011;1858;48.716;9.648;2023-11-21T07:49:35;4.27;;;2.00;;
3683;SDS011;1858;48.716;9.648;2023-11-21T07:52:24;2.67;;;1.83;;
3683;SDS011;1858;48.716;9.648;2023-11-21T07:55:11;7.70;;;2.83;;
3683;SDS011;1858;48.716;9.648;2023-11-21T07:57:58;3.27;;;2.13;;
3683;SDS011;1858;48.716;9.648;2023-11-21T08:00:44;3.10;;;1.80;;
3683;SDS011;1858;48.716;9.648;2023-11-21T08:03:31;3.80;;;2.20;;
3683;SDS011;1858;48.716;9.648;2023-11-21T08:06:17;4.30;;;2.23;;
3683;SDS011;1858;48.716;9.648;2023-11-21T08:09:03;2.53;;;1.50;;
3683;SDS011;1858;48.716;9.648;2023-11-21T08:11:50;2.20;;;1.70;;
3683;SDS011;1858;48.716;9.648;2023-11-21T08:14:37;7.67;;;2.50;;
3683;SDS011;1858;48.716;9.648;2023-11-21T08:17:24;2.63;;;1.77;;
3683;SDS011;1858;48.716;9.648;2023-11-21T08:20:11;2.40;;;1.90;;
3683;SDS011;1858;48.716;9.648;2023-11-21T08:22:59;3.30;;;1.70;;
3683;SDS011;1858;48.716;9.648;2023-11-21T08:25:45;2.60;;;1.43;;
3683;SDS011;1858;48.716;9.648;2023-11-21T08:28:35;3.10;;;1.33;;
3683;SDS011;1858;48.716;9.648;2023-11-21T08:31:25;2.50;;;1.40;;
3683;SDS011;1858;48.716;9.648;2023-11-21T08:34:11;1.80;;;1.30;;
3683;SDS011;1858;48.716;9.648;2023-11-21T08:36:59;2.03;;;1.40;;
3683;SDS011;1858;48.716;9.648;2023-11-21T08:39:45;2.37;;;1.50;;
3683;SDS011;1858;48.716;9.648;2023-11-21T08:42:33;4.27;;;1.00;;
3683;SDS011;1858;48.716;9.648;2023-11-21T08:45:19;2.10;;;1.30;;
3683;SDS011;1858;48.716;9.648;2023-11-21T08:48:06;6.40;;;2.60;;
3683;SDS011;1858;48.716;9.648;2023-11-21T08:54:02;1.60;;;1.13;;
3683;SDS011;1858;48.716;9.648;2023-11-21T08:56:49;1.53;;;1.00;;
3683;SDS011;1858;48.716;9.648;2023-11-21T08:59:35;3.07;;;1.63;;
3683;SDS011;1858;48.716;9.648;2023-11-21T09:02:22;1.90;;;1.10;;
3683;SDS011;1858;48.716;9.648;2023-11-21T09:05:12;4.77;;;1.47;;
3683;SDS011;1858;48.716;9.648;2023-11-21T09:08:00;2.03;;;1.17;;
3683;SDS011;1858;48.716;9.648;2023-11-21T09:10:46;2.70;;;1.40;;
3683;SDS011;1858;48.716;9.648;2023-11-21T09:13:32;1.67;;;1.13;;
3683;SDS011;1858;48.716;9.648;2023-11-21T09:16:19;1.97;;;0.83;;
3683;SDS011;1858;48.716;9.648;2023-11-21T09:22:11;2.60;;;1.00;;
3683;SDS011;1858;48.716;9.648;2023-11-21T09:24:57;1.40;;;0.90;;
3683;SDS011;1858;48.716;9.648;2023-11-21T09:27:44;2.50;;;1.17;;
3683;SDS011;1858;48.716;9.648;2023-11-21T09:30:31;2.13;;;0.70;;
3683;SDS011;1858;48.716;9.648;2023-11-21T09:33:17;3.47;;;1.23;;
3683;SDS011;1858;48.716;9.648;2023-11-21T09:36:05;3.20;;;1.93;;
3683;SDS011;1858;48.716;9.648;2023-11-21T09:38:53;4.77;;;1.70;;
3683;SDS011;1858;48.716;9.648;2023-11-21T09:41:44;4.13;;;1.60;;
3683;SDS011;1858;48.716;9.648;2023-11-21T09:47:45;3.77;;;2.07;;
3683;SDS011;1858;48.716;9.648;2023-11-21T09:50:33;2.17;;;1.47;;
3683;SDS011;1858;48.716;9.648;2023-11-21T09:53:21;1.90;;;1.33;;
3683;SDS011;1858;48.716;9.648;2023-11-21T09:56:28;1.90;;;1.10;;
3683;SDS011;1858;48.716;9.648;2023-11-21T09:59:15;8.73;;;1.60;;
3683;SDS011;1858;48.716;9.648;2023-11-21T10:02:02;3.43;;;1.43;;
3683;SDS011;1858;48.716;9.648;2023-11-21T10:07:56;1.67;;;0.83;;
3683;SDS011;1858;48.716;9.648;2023-11-21T10:10:43;9.80;;;1.50;;
3683;SDS011;1858;48.716;9.648;2023-11-21T10:16:38;7.10;;;0.80;;
3683;SDS011;1858;48.716;9.648;2023-11-21T10:19:25;1.27;;;0.77;;
3683;SDS011;1858;48.716;9.648;2023-11-21T10:22:18;7.07;;;1.37;;
3683;SDS011;1858;48.716;9.648;2023-11-21T10:25:01;1.03;;;0.63;;
3683;SDS011;1858;48.716;9.648;2023-11-21T10:27:49;1.00;;;0.70;;
3683;SDS011;1858;48.716;9.648;2023-11-21T10:30:38;1.30;;;0.50;;
3683;SDS011;1858;48.716;9.648;2023-11-21T10:33:27;1.90;;;0.60;;
3683;SDS011;1858;48.716;9.648;2023-11-21T10:36:19;0.90;;;0.40;;
3683;SDS011;1858;48.716;9.648;2023-11-21T10:39:16;0.80;;;0.47;;
3683;SDS011;1858;48.716;9.648;2023-11-21T10:42:02;1.20;;;0.63;;
3683;SDS011;1858;48.716;9.648;2023-11-21T10:44:50;1.80;;;1.10;;
3683;SDS011;1858;48.716;9.648;2023-11-21T10:47:38;2.90;;;1.20;;
3683;SDS011;1858;48.716;9.648;2023-11-21T10:50:24;1.90;;;0.97;;
3683;SDS011;1858;48.716;9.648;2023-11-21T10:53:11;0.90;;;0.57;;
3683;SDS011;1858;48.716;9.648;2023-11-21T10:56:01;1.50;;;0.63;;
3683;SDS011;1858;48.716;9.648;2023-11-21T10:58:50;1.00;;;0.60;;
3683;SDS011;1858;48.716;9.648;2023-11-21T11:01:38;1.20;;;0.80;;
3683;SDS011;1858;48.716;9.648;2023-11-21T11:04:26;0.90;;;0.50;;
3683;SDS011;1858;48.716;9.648;2023-11-21T11:07:13;1.37;;;0.50;;
3683;SDS011;1858;48.716;9.648;2023-11-21T11:10:01;2.60;;;0.90;;
3683;SDS011;1858;48.716;9.648;2023-11-21T11:12:48;1.00;;;0.50;;
3683;SDS011;1858;48.716;9.648;2023-11-21T11:15:37;2.73;;;0.73;;
3683;SDS011;1858;48.716;9.648;2023-11-21T11:18:23;1.07;;;0.60;;
3683;SDS011;1858;48.716;9.648;2023-11-21T11:36:31;0.90;;;0.43;;
3683;SDS011;1858;48.716;9.648;2023-11-21T11:39:35;1.00;;;0.50;;
3683;SDS011;1858;48.716;9.648;2023-11-21T11:42:22;2.23;;;0.80;;
3683;SDS011;1858;48.716;9.648;2023-11-21T11:45:18;4.23;;;0.60;;
3683;SDS011;1858;48.716;9.648;2023-11-21T11:48:06;0.80;;;0.50;;
3683;SDS011;1858;48.716;9.648;2023-11-21T11:51:01;0.90;;;0.40;;
3683;SDS011;1858;48.716;9.648;2023-11-21T11:53:56;1.00;;;0.50;;
3683;SDS011;1858;48.716;9.648;2023-11-21T11:56:42;1.00;;;0.50;;
3683;SDS011;1858;48.716;9.648;2023-11-21T11:59:29;2.47;;;0.70;;
3683;SDS011;1858;48.716;9.648;2023-11-21T12:02:15;1.70;;;0.50;;
3683;SDS011;1858;48.716;9.648;2023-11-21T12:05:02;1.03;;;0.60;;
3683;SDS011;1858;48.716;9.648;2023-11-21T12:08:04;1.33;;;0.83;;
3683;SDS011;1858;48.716;9.648;2023-11-21T12:13:58;1.30;;;0.60;;
3683;SDS011;1858;48.716;9.648;2023-11-21T12:16:45;0.93;;;0.50;;
3683;SDS011;1858;48.716;9.648;2023-11-21T12:19:32;1.20;;;0.73;;
3683;SDS011;1858;48.716;9.648;2023-11-21T12:22:19;2.53;;;0.70;;
3683;SDS011;1858;48.716;9.648;2023-11-21T12:25:06;1.43;;;0.77;;
3683;SDS011;1858;48.716;9.648;2023-11-21T12:27:52;1.43;;;0.90;;
3683;SDS011;1858;48.716;9.648;2023-11-21T12:30:39;1.53;;;0.90;;
3683;SDS011;1858;48.716;9.648;2023-11-21T12:33:25;1.17;;;0.40;;
3683;SDS011;1858;48.716;9.648;2023-11-21T12:36:13;3.37;;;0.87;;
3683;SDS011;1858;48.716;9.648;2023-11-21T12:39:00;1.57;;;0.80;;
3683;SDS011;1858;48.716;9.648;2023-11-21T12:41:47;0.83;;;0.40;;
3683;SDS011;1858;48.716;9.648;2023-11-21T12:44:34;2.13;;;0.30;;
3683;SDS011;1858;48.716;9.648;2023-11-21T12:47:20;0.80;;;0.40;;
3683;SDS011;1858;48.716;9.648;2023-11-21T12:50:07;0.70;;;0.37;;
3683;SDS011;1858;48.716;9.648;2023-11-21T12:56:01;1.13;;;0.40;;
3683;SDS011;1858;48.716;9.648;2023-11-21T12:58:48;1.00;;;0.50;;
3683;SDS011;1858;48.716;9.648;2023-11-21T13:01:36;0.80;;;0.47;;
3683;SDS011;1858;48.716;9.648;2023-11-21T13:04:29;2.93;;;0.40;;
3683;SDS011;1858;48.716;9.648;2023-11-21T13:07:16;3.27;;;0.77;;
3683;SDS011;1858;48.716;9.648;2023-11-21T13:10:04;2.83;;;0.80;;
3683;SDS011;1858;48.716;9.648;2023-11-21T13:12:53;0.87;;;0.50;;
3683;SDS011;1858;48.716;9.648;2023-11-21T13:15:52;1.10;;;0.50;;
3683;SDS011;1858;48.716;9.648;2023-11-21T13:18:40;1.33;;;0.43;;
3683;SDS011;1858;48.716;9.648;2023-11-21T13:21:28;1.37;;;0.60;;
3683;SDS011;1858;48.716;9.648;2023-11-21T13:24:14;1.90;;;0.60;;
3683;SDS011;1858;48.716;9.648;2023-11-21T13:27:02;1.00;;;0.63;;
3683;SDS011;1858;48.716;9.648;2023-11-21T13:29:49;2.60;;;0.70;;
3683;SDS011;1858;48.716;9.648;2023-11-21T13:32:36;3.43;;;0.70;;
3683;SDS011;1858;48.716;9.648;2023-11-21T13:35:23;2.33;;;0.60;;
3683;SDS011;1858;48.716;9.648;2023-11-21T13:38:11;0.97;;;0.57;;
3683;SDS011;1858;48.716;9.648;2023-11-21T13:41:01;2.77;;;1.10;;
3683;SDS011;1858;48.716;9.648;2023-11-21T13:43:49;1.30;;;0.90;;
3683;SDS011;1858;48.716;9.648;2023-11-21T13:46:37;1.50;;;0.90;;
3683;SDS011;1858;48.716;9.648;2023-11-21T13:49:23;3.20;;;1.43;;
3683;SDS011;1858;48.716;9.648;2023-11-21T13:52:10;1.50;;;0.80;;
3683;SDS011;1858;48.716;9.648;2023-11-21T13:54:58;1.27;;;1.07;;
3683;SDS011;1858;48.716;9.648;2023-11-21T13:57:46;0.90;;;0.70;;
3683;SDS011;1858;48.716;9.648;2023-11-21T14:00:34;2.50;;;0.90;;
3683;SDS011;1858;48.716;9.648;2023-11-21T14:03:30;1.87;;;0.70;;
3683;SDS011;1858;48.716;9.648;2023-11-21T14:06:18;0.80;;;0.43;;
3683;SDS011;1858;48.716;9.648;2023-11-21T14:09:06;1.00;;;0.67;;
3683;SDS011;1858;48.716;9.648;2023-11-21T14:11:53;1.30;;;0.80;;
3683;SDS011;1858;48.716;9.648;2023-11-21T14:17:49;1.60;;;0.67;;
3683;SDS011;1858;48.716;9.648;2023-11-21T14:20:35;0.80;;;0.47;;
3683;SDS011;1858;48.716;9.648;2023-11-21T14:23:22;1.40;;;0.70;;
3683;SDS011;1858;48.716;9.648;2023-11-21T14:29:18;1.10;;;0.50;;
3683;SDS011;1858;48.716;9.648;2023-11-21T14:32:08;1.17;;;0.77;;
3683;SDS011;1858;48.716;9.648;2023-11-21T14:34:54;1.27;;;0.70;;
3683;SDS011;1858;48.716;9.648;2023-11-21T14:37:41;2.03;;;0.70;;
3683;SDS011;1858;48.716;9.648;2023-11-21T14:40:28;6.53;;;0.57;;
3683;SDS011;1858;48.716;9.648;2023-11-21T14:43:16;1.47;;;0.80;;
3683;SDS011;1858;48.716;9.648;2023-11-21T14:46:04;2.00;;;0.67;;
3683;SDS011;1858;48.716;9.648;2023-11-21T14:48:52;0.90;;;0.40;;
3683;SDS011;1858;48.716;9.648;2023-11-21T14:51:46;0.90;;;0.50;;
3683;SDS011;1858;48.716;9.648;2023-11-21T14:54:47;1.20;;;0.50;;
3683;SDS011;1858;48.716;9.648;2023-11-21T14:57:35;1.13;;;0.60;;
3683;SDS011;1858;48.716;9.648;2023-11-21T15:00:21;1.10;;;0.50;;
3683;SDS011;1858;48.716;9.648;2023-11-21T15:03:18;1.33;;;0.70;;
3683;SDS011;1858;48.716;9.648;2023-11-21T15:06:18;0.83;;;0.40;;
3683;SDS011;1858;48.716;9.648;2023-11-21T15:09:06;0.80;;;0.40;;
3683;SDS011;1858;48.716;9.648;2023-11-21T15:11:54;0.80;;;0.47;;
3683;SDS011;1858;48.716;9.648;2023-11-21T15:14:48;3.07;;;0.57;;
3683;SDS011;1858;48.716;9.648;2023-11-21T15:17:31;2.53;;;0.50;;
3683;SDS011;1858;48.716;9.648;2023-11-21T15:20:18;0.97;;;0.60;;
3683;SDS011;1858;48.716;9.648;2023-11-21T15:23:05;1.10;;;0.77;;
3683;SDS011;1858;48.716;9.648;2023-11-21T15:25:52;1.23;;;0.60;;
3683;SDS011;1858;48.716;9.648;2023-11-21T15:28:39;2.33;;;0.83;;
3683;SDS011;1858;48.716;9.648;2023-11-21T15:31:25;3.27;;;0.70;;
3683;SDS011;1858;48.716;9.648;2023-11-21T15:34:12;1.73;;;0.87;;
3683;SDS011;1858;48.716;9.648;2023-11-21T15:36:58;1.20;;;0.70;;
3683;SDS011;1858;48.716;9.648;2023-11-21T15:39:44;3.40;;;1.00;;
3683;SDS011;1858;48.716;9.648;2023-11-21T15:42:31;1.83;;;1.47;;
3683;SDS011;1858;48.716;9.648;2023-11-21T15:45:17;1.40;;;1.13;;
3683;SDS011;1858;48.716;9.648;2023-11-21T15:48:11;1.90;;;1.17;;
3683;SDS011;1858;48.716;9.648;2023-11-21T15:50:57;5.40;;;3.53;;
3683;SDS011;1858;48.716;9.648;2023-11-21T15:53:43;3.87;;;2.23;;
3683;SDS011;1858;48.716;9.648;2023-11-21T15:56:29;3.17;;;1.60;;
3683;SDS011;1858;48.716;9.648;2023-11-21T15:59:18;1.70;;;1.20;;
3683;SDS011;1858;48.716;9.648;2023-11-21T16:02:04;3.20;;;1.60;;
3683;SDS011;1858;48.716;9.648;2023-11-21T16:04:51;1.70;;;1.23;;
3683;SDS011;1858;48.716;9.648;2023-11-21T16:07:38;2.80;;;1.40;;
3683;SDS011;1858;48.716;9.648;2023-11-21T16:10:25;1.83;;;1.00;;
3683;SDS011;1858;48.716;9.648;2023-11-21T16:13:12;1.83;;;1.27;;
3683;SDS011;1858;48.716;9.648;2023-11-21T16:15:58;3.30;;;1.17;;
3683;SDS011;1858;48.716;9.648;2023-11-21T16:18:44;1.87;;;1.03;;
3683;SDS011;1858;48.716;9.648;2023-11-21T16:21:30;1.77;;;1.20;;
3683;SDS011;1858;48.716;9.648;2023-11-21T16:24:17;2.30;;;1.50;;
3683;SDS011;1858;48.716;9.648;2023-11-21T16:27:03;6.93;;;2.23;;
3683;SDS011;1858;48.716;9.648;2023-11-21T16:29:50;4.40;;;2.23;;
3683;SDS011;1858;48.716;9.648;2023-11-21T16:32:36;3.23;;;1.73;;
3683;SDS011;1858;48.716;9.648;2023-11-21T16:35:23;3.30;;;1.97;;
3683;SDS011;1858;48.716;9.648;2023-11-21T16:38:09;3.80;;;2.30;;
3683;SDS011;1858;48.716;9.648;2023-11-21T16:40:57;6.10;;;3.53;;
3683;SDS011;1858;48.716;9.648;2023-11-21T16:43:43;3.40;;;2.27;;
3683;SDS011;1858;48.716;9.648;2023-11-21T16:46:30;7.87;;;2.10;;
3683;SDS011;1858;48.716;9.648;2023-11-21T16:49:16;2.97;;;1.93;;
3683;SDS011;1858;48.716;9.648;2023-11-21T16:52:03;5.40;;;2.53;;
3683;SDS011;1858;48.716;9.648;2023-11-21T16:54:52;5.50;;;2.53;;
3683;SDS011;1858;48.716;9.648;2023-11-21T16:57:39;4.30;;;2.30;;
3683;SDS011;1858;48.716;9.648;2023-11-21T17:00:25;5.10;;;2.67;;
3683;SDS011;1858;48.716;9.648;2023-11-21T17:03:11;5.73;;;2.83;;
3683;SDS011;1858;48.716;9.648;2023-11-21T17:05:58;4.07;;;2.70;;
3683;SDS011;1858;48.716;9.648;2023-11-21T17:08:44;3.60;;;2.37;;
3683;SDS011;1858;48.716;9.648;2023-11-21T17:11:31;4.63;;;2.40;;
3683;SDS011;1858;48.716;9.648;2023-11-21T17:14:17;4.07;;;2.40;;
3683;SDS011;1858;48.716;9.648;2023-11-21T17:17:03;9.10;;;3.37;;
3683;SDS011;1858;48.716;9.648;2023-11-21T17:19:52;2.80;;;1.67;;
3683;SDS011;1858;48.716;9.648;2023-11-21T17:22:39;3.17;;;2.10;;
3683;SDS011;1858;48.716;9.648;2023-11-21T17:25:25;2.60;;;1.93;;
3683;SDS011;1858;48.716;9.648;2023-11-21T17:28:12;3.90;;;2.80;;
3683;SDS011;1858;48.716;9.648;2023-11-21T17:30:58;3.70;;;2.40;;
3683;SDS011;1858;48.716;9.648;2023-11-21T17:33:44;5.00;;;2.83;;
3683;SDS011;1858;48.716;9.648;2023-11-21T17:39:37;5.10;;;3.20;;
3683;SDS011;1858;48.716;9.648;2023-11-21T17:42:26;9.63;;;3.13;;
3683;SDS011;1858;48.716;9.648;2023-11-21T17:45:13;5.87;;;4.00;;
3683;SDS011;1858;48.716;9.648;2023-11-21T17:48:00;4.30;;;2.70;;
3683;SDS011;1858;48.716;9.648;2023-11-21T17:50:47;5.03;;;3.37;;
3683;SDS011;1858;48.716;9.648;2023-11-21T17:53:33;6.53;;;3.33;;
3683;SDS011;1858;48.716;9.648;2023-11-21T17:56:20;6.37;;;4.33;;
3683;SDS011;1858;48.716;9.648;2023-11-21T17:59:06;3.60;;;2.70;;
3683;SDS011;1858;48.716;9.648;2023-11-21T18:01:53;7.50;;;3.37;;
3683;SDS011;1858;48.716;9.648;2023-11-21T18:04:39;4.50;;;3.40;;
3683;SDS011;1858;48.716;9.648;2023-11-21T18:10:31;6.40;;;3.10;;
3683;SDS011;1858;48.716;9.648;2023-11-21T18:13:18;4.13;;;2.43;;
3683;SDS011;1858;48.716;9.648;2023-11-21T18:16:04;6.97;;;4.10;;
3683;SDS011;1858;48.716;9.648;2023-11-21T18:18:50;6.70;;;4.10;;
3683;SDS011;1858;48.716;9.648;2023-11-21T18:24:43;6.60;;;4.07;;
3683;SDS011;1858;48.716;9.648;2023-11-21T18:27:29;6.53;;;3.90;;
3683;SDS011;1858;48.716;9.648;2023-11-21T18:30:16;10.40;;;4.67;;